PWSweather.com
Personal Weather Stations
Station Observations
IRIVIRED2
île Maurice, Petit RaffrayMU

île MauricePetit RaffrayMU

Lat: -20.02533, Lon: 57.61883

Elevation: 183

Station Type: Davis Vantage Pro2 plus

http://www.meteomauritius.altervista.org

Latest ConditionsUpdated 4:00:05 PM GMT+04:04 Friday, Jun 23, 2017
Currently Today's Max Today's Min Today's Average
Temperature 76.3°F24.6°C 78.1°F25.6°C 66.9°F19.4°C 72.5°F22.5°C
Dew Point 64.6°F18.1°C 65.6°F18.7°C 60.6°F15.9°C 63.1°F17.3°C
Winds 3.5 mph E5.6 kmh E 10.4 mph E16.7 kmh E - 4.0 mph 6.4 kmh
Wind Gusts 5.8 mph9.3 kmh 20.7 mph33.3 kmh - -
Humidity 67% 84% 57% 73%
Pressure 30.11 in1019.6 mb 30.21 in1023.0 mb 30.10 in1019.3 mb -
Hour Temp Dew Point Humidity Winds Wind Gusts Pressure Precip Precip Rate Daily Precip Total
04:00 PM 76.3°F24.6°C 64.6°F18.1°C 67% 3.5 mph E5.6 kmh E 5.8 mph9.3 kmh 30.11 in1019.6 mb - 0.00 in0.0 mm 0.00 in0.0 mm
03:50 PM 76.4°F24.7°C 63.8°F17.7°C 65% 4.6 mph E7.4 kmh E 8.1 mph13.0 kmh 30.11 in1019.6 mb - 0.00 in0.0 mm 0.00 in0.0 mm
03:40 PM 76.5°F24.7°C 64.3°F17.9°C 66% 8.1 mph ESE13.0 kmh ESE 11.5 mph18.5 kmh 30.11 in1019.6 mb - 0.00 in0.0 mm 0.00 in0.0 mm
03:30 PM 76.6°F24.8°C 64.8°F18.2°C 67% 6.9 mph ESE11.1 kmh ESE 12.7 mph20.4 kmh 30.11 in1019.6 mb - 0.00 in0.0 mm 0.00 in0.0 mm
03:20 PM 76.9°F24.9°C 64.2°F17.9°C 65% 5.8 mph ESE9.3 kmh ESE 10.4 mph16.7 kmh 30.10 in1019.3 mb - 0.00 in0.0 mm 0.00 in0.0 mm
03:10 PM 77.1°F25.1°C 64.4°F18.0°C 65% 3.5 mph SE5.6 kmh SE 8.1 mph13.0 kmh 30.11 in1019.6 mb - 0.00 in0.0 mm 0.00 in0.0 mm
03:00 PM 77.2°F25.1°C 64.5°F18.1°C 65% 4.6 mph E7.4 kmh E 6.9 mph11.1 kmh 30.11 in1019.6 mb - 0.00 in0.0 mm 0.00 in0.0 mm
02:50 PM 77.5°F25.3°C 64.4°F18.0°C 64% 5.8 mph E9.3 kmh E 16.1 mph25.9 kmh 30.11 in1019.6 mb - 0.00 in0.0 mm 0.00 in0.0 mm
02:40 PM 77.4°F25.2°C 64.7°F18.2°C 65% 3.5 mph E5.6 kmh E 9.2 mph14.8 kmh 30.11 in1019.6 mb - 0.00 in0.0 mm 0.00 in0.0 mm
02:30 PM 77.8°F25.4°C 64.2°F17.9°C 63% 3.5 mph ESE5.6 kmh ESE 11.5 mph18.5 kmh 30.11 in1019.6 mb - 0.00 in0.0 mm 0.00 in0.0 mm
02:20 PM 77.2°F25.1°C 64.1°F17.8°C 64% 5.8 mph SE9.3 kmh SE 8.1 mph13.0 kmh 30.11 in1019.6 mb - 0.00 in0.0 mm 0.00 in0.0 mm
02:10 PM 77.4°F25.2°C 64.3°F17.9°C 64% 4.6 mph E7.4 kmh E 8.1 mph13.0 kmh 30.11 in1019.6 mb - 0.00 in0.0 mm 0.00 in0.0 mm
02:00 PM 77.7°F25.4°C 64.5°F18.1°C 64% 3.5 mph SE5.6 kmh SE 11.5 mph18.5 kmh 30.11 in1019.6 mb - 0.00 in0.0 mm 0.00 in0.0 mm
01:50 PM 77.7°F25.4°C 64.1°F17.8°C 63% 10.4 mph ENE16.7 kmh ENE 19.6 mph31.5 kmh 30.12 in1020.0 mb - 0.00 in0.0 mm 0.00 in0.0 mm
01:40 PM 77.3°F25.2°C 64.6°F18.1°C 65% 5.8 mph E9.3 kmh E 6.9 mph11.1 kmh 30.12 in1020.0 mb - 0.00 in0.0 mm 0.00 in0.0 mm
01:30 PM 77.5°F25.3°C 63.9°F17.7°C 63% 5.8 mph E9.3 kmh E 15.0 mph24.1 kmh 30.12 in1020.0 mb - 0.00 in0.0 mm 0.00 in0.0 mm
01:20 PM 77.3°F25.2°C 63.7°F17.6°C 63% 3.5 mph ESE5.6 kmh ESE 9.2 mph14.8 kmh 30.13 in1020.3 mb - 0.00 in0.0 mm 0.00 in0.0 mm
01:10 PM 77.8°F25.4°C 62.8°F17.1°C 60% 6.9 mph ESE11.1 kmh ESE 15.0 mph24.1 kmh 30.13 in1020.3 mb - 0.00 in0.0 mm 0.00 in0.0 mm
01:00 PM 78.0°F25.6°C 63.0°F17.2°C 60% 8.1 mph ESE13.0 kmh ESE 16.1 mph25.9 kmh 30.13 in1020.3 mb - 0.00 in0.0 mm 0.00 in0.0 mm
12:50 PM 77.7°F25.4°C 63.2°F17.3°C 61% 3.5 mph E5.6 kmh E 6.9 mph11.1 kmh 30.14 in1020.7 mb - 0.00 in0.0 mm 0.00 in0.0 mm
12:40 PM 78.1°F25.6°C 64.0°F17.8°C 62% 4.6 mph E7.4 kmh E 9.2 mph14.8 kmh 30.14 in1020.7 mb - 0.00 in0.0 mm 0.00 in0.0 mm
12:30 PM 77.9°F25.5°C 62.9°F17.2°C 60% 8.1 mph ESE13.0 kmh ESE 12.7 mph20.4 kmh 30.15 in1021.0 mb - 0.00 in0.0 mm 0.00 in0.0 mm
12:20 PM 77.5°F25.3°C 62.9°F17.2°C 61% 6.9 mph ESE11.1 kmh ESE 10.4 mph16.7 kmh 30.15 in1021.0 mb - 0.00 in0.0 mm 0.00 in0.0 mm
12:10 PM 77.7°F25.4°C 62.2°F16.8°C 59% 6.9 mph E11.1 kmh E 16.1 mph25.9 kmh 30.16 in1021.3 mb - 0.00 in0.0 mm 0.00 in0.0 mm
12:00 PM 77.5°F25.3°C 61.1°F16.2°C 57% 6.9 mph ESE11.1 kmh ESE 11.5 mph18.5 kmh 30.16 in1021.3 mb - 0.00 in0.0 mm 0.00 in0.0 mm
11:50 AM 77.5°F25.3°C 61.6°F16.4°C 58% 9.2 mph SE14.8 kmh SE 15.0 mph24.1 kmh 30.16 in1021.3 mb - 0.00 in0.0 mm 0.00 in0.0 mm
11:40 AM 77.4°F25.2°C 61.0°F16.1°C 57% 10.4 mph E16.7 kmh E 13.8 mph22.2 kmh 30.17 in1021.7 mb - 0.00 in0.0 mm 0.00 in0.0 mm
11:30 AM 77.3°F25.2°C 61.8°F16.6°C 59% 8.1 mph E13.0 kmh E 16.1 mph25.9 kmh 30.17 in1021.7 mb - 0.00 in0.0 mm 0.00 in0.0 mm
11:20 AM 77.2°F25.1°C 62.7°F17.1°C 61% 6.9 mph E11.1 kmh E 12.7 mph20.4 kmh 30.18 in1022.0 mb - 0.00 in0.0 mm 0.00 in0.0 mm
11:10 AM 77.2°F25.1°C 62.7°F17.1°C 61% 5.8 mph E9.3 kmh E 9.2 mph14.8 kmh 30.18 in1022.0 mb - 0.00 in0.0 mm 0.00 in0.0 mm
11:00 AM 77.1°F25.1°C 62.2°F16.8°C 60% 4.6 mph ESE7.4 kmh ESE 11.5 mph18.5 kmh 30.18 in1022.0 mb - 0.00 in0.0 mm 0.00 in0.0 mm
10:50 AM 76.8°F24.9°C 62.8°F17.1°C 62% 5.8 mph ESE9.3 kmh ESE 20.7 mph33.3 kmh 30.18 in1022.0 mb - 0.00 in0.0 mm 0.00 in0.0 mm
10:40 AM 76.7°F24.8°C 64.5°F18.1°C 66% 9.2 mph E14.8 kmh E 15.0 mph24.1 kmh 30.19 in1022.4 mb - 0.00 in0.0 mm 0.00 in0.0 mm
10:30 AM 76.1°F24.5°C 65.6°F18.7°C 70% 5.8 mph E9.3 kmh E 12.7 mph20.4 kmh 30.20 in1022.7 mb - 0.00 in0.0 mm 0.00 in0.0 mm
10:20 AM 75.6°F24.2°C 64.8°F18.2°C 69% 10.4 mph E16.7 kmh E 17.3 mph27.8 kmh 30.20 in1022.7 mb - 0.00 in0.0 mm 0.00 in0.0 mm
10:10 AM 74.7°F23.7°C 64.6°F18.1°C 71% 6.9 mph E11.1 kmh E 11.5 mph18.5 kmh 30.20 in1022.7 mb - 0.00 in0.0 mm 0.00 in0.0 mm
10:00 AM 74.5°F23.6°C 64.5°F18.1°C 71% 4.6 mph SE7.4 kmh SE 10.4 mph16.7 kmh 30.20 in1022.7 mb - 0.00 in0.0 mm 0.00 in0.0 mm
09:50 AM 74.7°F23.7°C 64.7°F18.2°C 71% 3.5 mph SE5.6 kmh SE 10.4 mph16.7 kmh 30.21 in1023.0 mb - 0.00 in0.0 mm 0.00 in0.0 mm
09:40 AM 75.9°F24.4°C 64.6°F18.1°C 68% 8.1 mph E13.0 kmh E 13.8 mph22.2 kmh 30.20 in1022.7 mb - 0.00 in0.0 mm 0.00 in0.0 mm
09:30 AM 76.2°F24.6°C 64.4°F18.0°C 67% 5.8 mph E9.3 kmh E 8.1 mph13.0 kmh 30.21 in1023.0 mb - 0.00 in0.0 mm 0.00 in0.0 mm
09:20 AM 75.7°F24.3°C 64.4°F18.0°C 68% 4.6 mph SE7.4 kmh SE 9.2 mph14.8 kmh 30.20 in1022.7 mb - 0.00 in0.0 mm 0.00 in0.0 mm
09:10 AM 75.6°F24.2°C 63.4°F17.4°C 66% 4.6 mph E7.4 kmh E 11.5 mph18.5 kmh 30.20 in1022.7 mb - 0.00 in0.0 mm 0.00 in0.0 mm
09:00 AM 76.1°F24.5°C 63.9°F17.7°C 66% 9.2 mph E14.8 kmh E 13.8 mph22.2 kmh 30.20 in1022.7 mb - 0.00 in0.0 mm 0.00 in0.0 mm
08:50 AM 75.8°F24.3°C 64.0°F17.8°C 67% 2.3 mph E3.7 kmh E 8.1 mph13.0 kmh 30.20 in1022.7 mb - 0.00 in0.0 mm 0.00 in0.0 mm
08:40 AM 75.7°F24.3°C 63.5°F17.5°C 66% 8.1 mph E13.0 kmh E 13.8 mph22.2 kmh 30.20 in1022.7 mb - 0.00 in0.0 mm 0.00 in0.0 mm
08:30 AM 75.5°F24.2°C 64.6°F18.1°C 69% 5.8 mph E9.3 kmh E 9.2 mph14.8 kmh 30.19 in1022.4 mb - 0.00 in0.0 mm 0.00 in0.0 mm
08:20 AM 74.7°F23.7°C 63.8°F17.7°C 69% 8.1 mph ESE13.0 kmh ESE 11.5 mph18.5 kmh 30.19 in1022.4 mb - 0.00 in0.0 mm 0.00 in0.0 mm
08:10 AM 73.6°F23.1°C 63.6°F17.6°C 71% 3.5 mph E5.6 kmh E 5.8 mph9.3 kmh 30.19 in1022.4 mb - 0.00 in0.0 mm 0.00 in0.0 mm
08:00 AM 72.9°F22.7°C 63.3°F17.4°C 72% 2.3 mph ESE3.7 kmh ESE 11.5 mph18.5 kmh 30.18 in1022.0 mb - 0.00 in0.0 mm 0.00 in0.0 mm
07:50 AM 71.5°F21.9°C 62.7°F17.1°C 74% 3.5 mph E5.6 kmh E 6.9 mph11.1 kmh 30.18 in1022.0 mb - 0.00 in0.0 mm 0.00 in0.0 mm
07:40 AM 70.3°F21.3°C 63.5°F17.5°C 79% 1.2 mph E1.9 kmh E 4.6 mph7.4 kmh 30.18 in1022.0 mb - 0.00 in0.0 mm 0.00 in0.0 mm
07:30 AM 69.7°F20.9°C 63.6°F17.6°C 81% Calm Calm -- 30.18 in1022.0 mb - 0.00 in0.0 mm 0.00 in0.0 mm
07:20 AM 69.2°F20.7°C 63.2°F17.3°C 81% 1.2 mph SSE1.9 kmh SSE 4.6 mph7.4 kmh 30.17 in1021.7 mb - 0.00 in0.0 mm 0.00 in0.0 mm
07:10 AM 68.6°F20.3°C 63.2°F17.3°C 83% Calm Calm 3.5 mph5.6 kmh 30.17 in1021.7 mb - 0.00 in0.0 mm 0.00 in0.0 mm
07:00 AM 68.3°F20.2°C 63.3°F17.4°C 84% 2.3 mph SSE3.7 kmh SSE 3.5 mph5.6 kmh 30.16 in1021.3 mb - 0.00 in0.0 mm 0.00 in0.0 mm
06:50 AM 68.1°F20.1°C 62.7°F17.1°C 83% Calm Calm -- 30.16 in1021.3 mb - 0.00 in0.0 mm 0.00 in0.0 mm
06:40 AM 68.0°F20.0°C 62.6°F17.0°C 83% Calm Calm -- 30.16 in1021.3 mb - 0.00 in0.0 mm 0.00 in0.0 mm
06:30 AM 68.0°F20.0°C 62.6°F17.0°C 83% Calm Calm -- 30.15 in1021.0 mb - 0.00 in0.0 mm 0.00 in0.0 mm
06:20 AM 68.0°F20.0°C 62.3°F16.8°C 82% Calm Calm -- 30.15 in1021.0 mb - 0.00 in0.0 mm 0.00 in0.0 mm
06:10 AM 67.8°F19.9°C 62.1°F16.7°C 82% 1.2 mph SSE1.9 kmh SSE 2.3 mph3.7 kmh 30.15 in1021.0 mb - 0.00 in0.0 mm 0.00 in0.0 mm
06:00 AM 67.4°F19.7°C 61.7°F16.5°C 82% 1.2 mph S1.9 kmh S 3.5 mph5.6 kmh 30.15 in1021.0 mb - 0.00 in0.0 mm 0.00 in0.0 mm
05:50 AM 67.2°F19.6°C 61.5°F16.4°C 82% 1.2 mph S1.9 kmh S 2.3 mph3.7 kmh 30.15 in1021.0 mb - 0.00 in0.0 mm 0.00 in0.0 mm
05:40 AM 67.1°F19.5°C 61.1°F16.2°C 81% 1.2 mph S1.9 kmh S -- 30.14 in1020.7 mb - 0.00 in0.0 mm 0.00 in0.0 mm
05:30 AM 67.0°F19.4°C 61.0°F16.1°C 81% 1.2 mph S1.9 kmh S 3.5 mph5.6 kmh 30.14 in1020.7 mb - 0.00 in0.0 mm 0.00 in0.0 mm
05:20 AM 67.0°F19.4°C 60.6°F15.9°C 80% 3.5 mph S5.6 kmh S 5.8 mph9.3 kmh 30.14 in1020.7 mb - 0.00 in0.0 mm 0.00 in0.0 mm
05:10 AM 67.0°F19.4°C 60.6°F15.9°C 80% 2.3 mph S3.7 kmh S 3.5 mph5.6 kmh 30.14 in1020.7 mb - 0.00 in0.0 mm 0.00 in0.0 mm
05:00 AM 67.0°F19.4°C 61.0°F16.1°C 81% 1.2 mph S1.9 kmh S 2.3 mph3.7 kmh 30.14 in1020.7 mb - 0.00 in0.0 mm 0.00 in0.0 mm
04:50 AM 66.9°F19.4°C 60.9°F16.1°C 81% 2.3 mph SSE3.7 kmh SSE 4.6 mph7.4 kmh 30.14 in1020.7 mb - 0.00 in0.0 mm 0.00 in0.0 mm
04:40 AM 67.1°F19.5°C 61.1°F16.2°C 81% Calm Calm 3.5 mph5.6 kmh 30.14 in1020.7 mb - 0.00 in0.0 mm 0.00 in0.0 mm
04:30 AM 67.2°F19.6°C 61.5°F16.4°C 82% 1.2 mph S1.9 kmh S 3.5 mph5.6 kmh 30.14 in1020.7 mb - 0.00 in0.0 mm 0.00 in0.0 mm
04:20 AM 67.3°F19.6°C 61.6°F16.4°C 82% 2.3 mph S3.7 kmh S 3.5 mph5.6 kmh 30.14 in1020.7 mb - 0.00 in0.0 mm 0.00 in0.0 mm
04:10 AM 67.4°F19.7°C 61.7°F16.5°C 82% 2.3 mph S3.7 kmh S 3.5 mph5.6 kmh 30.14 in1020.7 mb - 0.00 in0.0 mm 0.00 in0.0 mm
04:00 AM 67.5°F19.7°C 61.8°F16.6°C 82% 1.2 mph SSE1.9 kmh SSE 2.3 mph3.7 kmh 30.14 in1020.7 mb - 0.00 in0.0 mm 0.00 in0.0 mm
03:50 AM 67.7°F19.8°C 62.0°F16.7°C 82% 2.3 mph SSE3.7 kmh SSE 8.1 mph13.0 kmh 30.14 in1020.7 mb - 0.00 in0.0 mm 0.00 in0.0 mm
03:40 AM 68.0°F20.0°C 62.3°F16.8°C 82% 1.2 mph S1.9 kmh S 5.8 mph9.3 kmh 30.14 in1020.7 mb - 0.00 in0.0 mm 0.00 in0.0 mm
03:30 AM 68.4°F20.2°C 62.7°F17.1°C 82% 1.2 mph SSE1.9 kmh SSE 1.2 mph1.9 kmh 30.14 in1020.7 mb - 0.00 in0.0 mm 0.00 in0.0 mm
03:20 AM 68.7°F20.4°C 62.6°F17.0°C 81% Calm Calm -- 30.14 in1020.7 mb - 0.00 in0.0 mm 0.00 in0.0 mm
03:10 AM 68.8°F20.4°C 62.7°F17.1°C 81% 2.3 mph SE3.7 kmh SE 2.3 mph3.7 kmh 30.14 in1020.7 mb - 0.00 in0.0 mm 0.00 in0.0 mm
03:00 AM 68.9°F20.5°C 62.8°F17.1°C 81% 3.5 mph S5.6 kmh S 4.6 mph7.4 kmh 30.14 in1020.7 mb - 0.00 in0.0 mm 0.00 in0.0 mm
02:50 AM 69.0°F20.6°C 62.6°F17.0°C 80% 3.5 mph SSE5.6 kmh SSE 5.8 mph9.3 kmh 30.14 in1020.7 mb - 0.00 in0.0 mm 0.00 in0.0 mm
02:40 AM 69.0°F20.6°C 62.6°F17.0°C 80% 4.6 mph SSE7.4 kmh SSE 6.9 mph11.1 kmh 30.14 in1020.7 mb - 0.00 in0.0 mm 0.00 in0.0 mm
02:30 AM 68.4°F20.2°C 62.3°F16.8°C 81% 3.5 mph SE5.6 kmh SE 6.9 mph11.1 kmh 30.14 in1020.7 mb - 0.00 in0.0 mm 0.00 in0.0 mm
02:20 AM 68.7°F20.4°C 62.6°F17.0°C 81% 3.5 mph SSE5.6 kmh SSE 4.6 mph7.4 kmh 30.14 in1020.7 mb - 0.00 in0.0 mm 0.00 in0.0 mm
02:10 AM 68.3°F20.2°C 62.6°F17.0°C 82% 4.6 mph SE7.4 kmh SE 6.9 mph11.1 kmh 30.15 in1021.0 mb - 0.00 in0.0 mm 0.00 in0.0 mm
02:00 AM 68.0°F20.0°C 62.6°F17.0°C 83% 2.3 mph SSE3.7 kmh SSE 4.6 mph7.4 kmh 30.15 in1021.0 mb - 0.00 in0.0 mm 0.00 in0.0 mm
01:50 AM 68.0°F20.0°C 62.6°F17.0°C 83% 2.3 mph SSE3.7 kmh SSE 5.8 mph9.3 kmh 30.15 in1021.0 mb - 0.00 in0.0 mm 0.00 in0.0 mm
01:40 AM 68.1°F20.1°C 62.7°F17.1°C 83% 2.3 mph SSE3.7 kmh SSE 3.5 mph5.6 kmh 30.15 in1021.0 mb - 0.00 in0.0 mm 0.00 in0.0 mm
01:30 AM 68.3°F20.2°C 62.9°F17.2°C 83% 2.3 mph SSE3.7 kmh SSE 3.5 mph5.6 kmh 30.15 in1021.0 mb - 0.00 in0.0 mm 0.00 in0.0 mm
01:20 AM 68.7°F20.4°C 62.9°F17.2°C 82% 3.5 mph S5.6 kmh S 4.6 mph7.4 kmh 30.16 in1021.3 mb - 0.00 in0.0 mm 0.00 in0.0 mm
01:10 AM 68.7°F20.4°C 63.3°F17.4°C 83% 2.3 mph SE3.7 kmh SE 3.5 mph5.6 kmh 30.16 in1021.3 mb - 0.00 in0.0 mm 0.00 in0.0 mm
01:00 AM 68.5°F20.3°C 63.1°F17.3°C 83% 2.3 mph SE3.7 kmh SE 3.5 mph5.6 kmh 30.16 in1021.3 mb - 0.00 in0.0 mm 0.00 in0.0 mm
12:50 AM 68.6°F20.3°C 63.2°F17.3°C 83% 3.5 mph SSE5.6 kmh SSE 4.6 mph7.4 kmh 30.16 in1021.3 mb - 0.00 in0.0 mm 0.00 in0.0 mm
12:40 AM 69.0°F20.6°C 62.9°F17.2°C 81% 1.2 mph S1.9 kmh S 3.5 mph5.6 kmh 30.16 in1021.3 mb - 0.00 in0.0 mm 0.00 in0.0 mm
12:30 AM 69.7°F20.9°C 63.3°F17.4°C 80% Calm Calm -- 30.16 in1021.3 mb - 0.00 in0.0 mm 0.00 in0.0 mm
12:20 AM 70.0°F21.1°C 63.2°F17.3°C 79% Calm Calm 3.5 mph5.6 kmh 30.16 in1021.3 mb - 0.00 in0.0 mm 0.00 in0.0 mm
12:10 AM 70.1°F21.2°C 63.3°F17.4°C 79% 4.6 mph SE7.4 kmh SE 6.9 mph11.1 kmh 30.16 in1021.3 mb - 0.00 in0.0 mm 0.00 in0.0 mm
12:00 AM 70.1°F21.2°C 63.6°F17.6°C 80% 5.8 mph SE9.3 kmh SE 9.2 mph14.8 kmh 30.16 in1021.3 mb - 0.00 in0.0 mm 0.00 in0.0 mm